Time;durP1;ratioP1;P1;durP2;ratioP2;P2;SDS_P1;SDS_P2;PMS_P1;PMS_P2;Temp;Humidity;BMP_temperature;BMP_pressure;BME280_temperature;BME280_humidity;BME280_pressure;Samples;Min_cycle;Max_cycle;Signal;HPM_P1;HPM_P2
2023/03/31 00:01:34;;;;;;;22.50;4.60;;;11.00;99.90;;;;;;5022357;28;20049;-68
2023/03/31 00:04:07;;;;;;;18.25;3.67;;;11.00;99.90;;;;;;5023066;28;20033;-69
2023/03/31 00:06:36;;;;;;;20.85;3.38;;;10.90;99.90;;;;;;5025394;28;20402;-70
2023/03/31 00:09:08;;;;;;;18.27;3.47;;;10.90;99.90;;;;;;5021211;28;20470;-69
2023/03/31 00:11:33;;;;;;;22.00;3.85;;;10.80;99.90;;;;;;5020642;28;20502;-70
2023/03/31 00:13:59;;;;;;;21.80;3.17;;;10.80;99.90;;;;;;5023115;28;20052;-69
2023/03/31 00:16:26;;;;;;;25.02;4.32;;;10.80;99.90;;;;;;5006517;28;20040;-70
2023/03/31 00:18:52;;;;;;;18.77;3.78;;;10.70;99.90;;;;;;5023371;28;20132;-69
2023/03/31 00:21:23;;;;;;;22.25;3.55;;;10.70;99.90;;;;;;5020356;28;20116;-69
2023/03/31 00:23:56;;;;;;;24.25;3.90;;;10.60;99.90;;;;;;5022332;28;20038;-69
2023/03/31 00:26:23;;;;;;;23.15;3.53;;;10.60;99.90;;;;;;5023673;28;20049;-69
2023/03/31 00:28:49;;;;;;;20.30;3.65;;;10.50;99.90;;;;;;5023980;28;20045;-69
2023/03/31 00:31:15;;;;;;;24.60;4.15;;;10.50;99.90;;;;;;5019114;28;20046;-69
2023/03/31 00:33:41;;;;;;;24.20;4.22;;;10.40;99.90;;;;;;5022737;28;20044;-68
2023/03/31 00:36:07;;;;;;;20.98;4.18;;;10.30;99.90;;;;;;5016576;28;20087;-69
2023/03/31 00:38:33;;;;;;;24.73;4.75;;;10.30;99.90;;;;;;5020434;28;20049;-69
2023/03/31 00:41:00;;;;;;;18.08;4.05;;;10.20;99.90;;;;;;5023243;28;20436;-69
2023/03/31 00:43:31;;;;;;;20.30;3.53;;;10.20;99.90;;;;;;5023678;28;20515;-70
2023/03/31 00:46:26;;;;;;;18.23;3.90;;;10.10;99.90;;;;;;5020170;28;20056;-68
2023/03/31 00:48:57;;;;;;;22.35;4.13;;;10.10;99.90;;;;;;5018256;28;20096;-69
2023/03/31 00:51:28;;;;;;;22.35;3.65;;;10.00;99.90;;;;;;5021532;28;20041;-69
2023/03/31 00:53:59;;;;;;;17.55;2.78;;;9.90;99.90;;;;;;5016907;28;20038;-69
2023/03/31 00:56:28;;;;;;;23.15;4.45;;;9.90;99.90;;;;;;5009340;28;20080;-69
2023/03/31 00:59:00;;;;;;;20.85;3.33;;;9.80;99.90;;;;;;5055675;28;20106;-69
2023/03/31 01:01:25;;;;;;;20.95;3.90;;;9.80;99.90;;;;;;5004868;28;20049;-71
2023/03/31 01:03:52;;;;;;;19.05;3.42;;;9.70;99.90;;;;;;5021144;28;20095;-71
2023/03/31 01:06:18;;;;;;;27.48;3.90;;;9.70;99.90;;;;;;5017440;28;20476;-71
2023/03/31 01:08:49;;;;;;;21.48;4.05;;;9.70;99.90;;;;;;5023824;28;20038;-71
2023/03/31 01:11:18;;;;;;;21.88;3.58;;;9.60;99.90;;;;;;5020216;28;20095;-71
2023/03/31 01:13:48;;;;;;;14.85;3.03;;;9.70;99.90;;;;;;5024062;28;20359;-72
2023/03/31 01:16:15;;;;;;;17.92;3.47;;;9.60;99.90;;;;;;5010521;28;20037;-71
2023/03/31 01:18:45;;;;;;;22.38;4.53;;;9.60;99.90;;;;;;5018496;28;20136;-71
2023/03/31 01:21:32;;;;;;;19.73;3.25;;;9.50;99.90;;;;;;5020057;28;20049;-71
2023/03/31 01:24:23;;;;;;;22.55;4.57;;;9.50;99.90;;;;;;5020456;28;20049;-71
2023/03/31 01:27:21;;;;;;;21.23;3.42;;;9.50;99.90;;;;;;5020724;28;20049;-71
2023/03/31 01:30:10;;;;;;;19.17;3.35;;;9.50;99.90;;;;;;5025267;28;20045;-71
2023/03/31 01:32:48;;;;;;;20.83;3.78;;;9.40;99.90;;;;;;5020652;28;20339;-72
2023/03/31 01:35:35;;;;;;;23.50;3.75;;;9.40;99.90;;;;;;5027428;28;20637;-71
2023/03/31 01:38:30;;;;;;;16.02;3.20;;;9.40;99.90;;;;;;5027655;28;20060;-71
2023/03/31 01:41:14;;;;;;;19.65;3.55;;;9.40;99.90;;;;;;5012807;28;20033;-72
2023/03/31 01:43:46;;;;;;;23.10;3.80;;;9.30;99.90;;;;;;5025094;28;20060;-71
2023/03/31 01:46:20;;;;;;;20.40;2.88;;;9.30;99.90;;;;;;5021860;28;20049;-71
2023/03/31 01:48:52;;;;;;;17.55;3.00;;;9.30;99.90;;;;;;5022870;28;20401;-71
2023/03/31 01:51:46;;;;;;;14.32;2.67;;;9.40;99.90;;;;;;5003869;28;20049;-71
2023/03/31 01:54:18;;;;;;;18.40;3.58;;;9.40;99.90;;;;;;5017376;28;20054;-71
2023/03/31 01:56:59;;;;;;;22.13;3.10;;;9.30;99.90;;;;;;5022976;28;20051;-71
2023/03/31 01:59:34;;;;;;;14.75;3.10;;;9.40;99.90;;;;;;5020816;28;20037;-71
2023/03/31 02:02:12;;;;;;;16.92;3.20;;;9.40;99.90;;;;;;5021051;28;20038;-71
2023/03/31 02:04:43;;;;;;;20.20;3.42;;;9.40;99.90;;;;;;5008248;28;20127;-71
2023/03/31 02:07:18;;;;;;;18.08;3.58;;;9.40;99.90;;;;;;5022067;28;20084;-71
2023/03/31 02:09:46;;;;;;;;;;;9.40;99.90;;;;;;5028014;28;20041;-71
2023/03/31 02:12:13;;;;;;;21.63;4.03;;;9.40;99.90;;;;;;5059180;28;20007;-72
2023/03/31 02:14:43;;;;;;;13.40;3.25;;;9.40;99.90;;;;;;5026533;28;20672;-71
2023/03/31 02:17:16;;;;;;;17.85;3.50;;;9.40;99.90;;;;;;5026244;28;20029;-71
2023/03/31 02:19:46;;;;;;;16.35;3.30;;;9.40;99.90;;;;;;5024611;28;20550;-71
2023/03/31 02:22:12;;;;;;;16.23;3.38;;;9.40;99.90;;;;;;5027130;28;20045;-72
2023/03/31 02:24:40;;;;;;;15.93;3.33;;;9.50;99.90;;;;;;5025639;28;20041;-71
2023/03/31 02:27:11;;;;;;;14.45;2.83;;;9.40;99.90;;;;;;5024229;28;20123;-71
2023/03/31 02:29:37;;;;;;;15.25;3.28;;;9.50;99.90;;;;;;5024253;28;20506;-71
2023/03/31 02:32:11;;;;;;;11.25;2.63;;;9.50;99.90;;;;;;5022612;28;20060;-71
2023/03/31 02:34:37;;;;;;;19.30;3.28;;;9.50;99.90;;;;;;5023489;28;20041;-71
2023/03/31 02:37:03;;;;;;;16.13;2.72;;;9.50;99.90;;;;;;5026307;28;20055;-71
2023/03/31 02:39:33;;;;;;;15.38;2.78;;;9.50;99.90;;;;;;5024680;28;20437;-71
2023/03/31 02:42:05;;;;;;;17.02;3.60;;;9.60;99.90;;;;;;5023459;28;20499;-71
2023/03/31 02:44:35;;;;;;;17.13;4.57;;;9.60;99.90;;;;;;5028494;28;20037;-71
2023/03/31 02:47:05;;;;;;;16.15;3.20;;;9.60;99.90;;;;;;5022980;28;20045;-71
2023/03/31 02:49:31;;;;;;;16.60;3.20;;;9.60;99.90;;;;;;5027162;28;20036;-72
2023/03/31 02:52:41;;;;;;;12.75;2.97;;;9.60;99.90;;;;;;5024920;28;20037;-71
2023/03/31 02:55:18;;;;;;;13.15;2.67;;;9.70;99.90;;;;;;4959814;28;20056;-71
2023/03/31 02:57:45;;;;;;;12.90;2.85;;;9.70;99.90;;;;;;5032832;28;20053;-71
2023/03/31 03:00:29;;;;;;;12.32;3.35;;;9.70;99.90;;;;;;5009252;28;20103;-72
2023/03/31 03:03:10;;;;;;;10.68;2.92;;;9.70;99.90;;;;;;5028948;28;20493;-71
2023/03/31 03:05:53;;;;;;;11.75;3.08;;;9.80;99.90;;;;;;5023711;28;20057;-72
2023/03/31 03:08:37;;;;;;;14.77;3.88;;;9.80;99.90;;;;;;5025723;28;20066;-71
2023/03/31 03:11:45;;;;;;;15.05;3.50;;;9.90;99.90;;;;;;5026040;28;20036;-71
2023/03/31 03:14:17;;;;;;;13.02;3.22;;;9.90;99.90;;;;;;5032956;28;20049;-71
2023/03/31 03:16:47;;;;;;;9.55;3.70;;;10.00;99.90;;;;;;5021619;28;20048;-71
2023/03/31 03:19:20;;;;;;;13.10;3.75;;;10.00;99.90;;;;;;5028816;28;20091;-71
2023/03/31 03:21:46;;;;;;;9.45;3.28;;;10.00;99.90;;;;;;5028767;28;20033;-71
2023/03/31 03:24:16;;;;;;;12.68;3.85;;;10.00;99.90;;;;;;5025172;28;20037;-72
2023/03/31 03:26:45;;;;;;;13.43;3.85;;;10.00;99.90;;;;;;5023044;28;20121;-71
2023/03/31 03:29:14;;;;;;;12.70;3.97;;;10.00;99.90;;;;;;5027013;28;20528;-71
2023/03/31 03:31:41;;;;;;;11.40;3.38;;;10.10;99.90;;;;;;5025745;28;20033;-71
2023/03/31 03:34:08;;;;;;;9.10;3.85;;;10.10;99.90;;;;;;5024050;28;20041;-71
2023/03/31 03:36:37;;;;;;;14.27;4.18;;;10.10;99.90;;;;;;5020985;28;20037;-71
2023/03/31 03:39:06;;;;;;;8.02;3.80;;;10.10;99.90;;;;;;5023303;28;20124;-71
2023/03/31 03:41:32;;;;;;;12.32;4.10;;;10.10;99.90;;;;;;5016213;28;20045;-71
2023/03/31 03:44:01;;;;;;;15.13;4.57;;;10.10;99.90;;;;;;5023069;28;20063;-70
2023/03/31 03:46:27;;;;;;;15.07;4.07;;;10.10;99.90;;;;;;5026557;28;20029;-71
2023/03/31 03:48:53;;;;;;;14.27;4.53;;;10.10;99.90;;;;;;5022485;28;20397;-72
2023/03/31 03:51:19;;;;;;;15.15;4.28;;;10.00;99.90;;;;;;5021319;28;20742;-72
2023/03/31 03:53:44;;;;;;;11.90;4.18;;;10.00;99.90;;;;;;5009744;28;20033;-73
2023/03/31 03:56:10;;;;;;;8.00;3.50;;;10.00;99.90;;;;;;5028680;28;20128;-73
2023/03/31 03:58:36;;;;;;;9.68;3.58;;;10.00;99.90;;;;;;5032876;28;20029;-74
2023/03/31 04:01:03;;;;;;;9.27;3.58;;;10.00;99.90;;;;;;5027904;28;20480;-74
2023/03/31 04:03:28;;;;;;;10.52;3.45;;;10.00;99.90;;;;;;5029387;28;20045;-73
2023/03/31 04:05:54;;;;;;;13.48;4.32;;;10.00;99.90;;;;;;5037245;28;20044;-74
2023/03/31 04:08:33;;;;;;;10.95;3.50;;;10.00;99.90;;;;;;5140354;27;1278989;-72
2023/03/31 04:10:59;;;;;;;10.70;3.95;;;10.00;99.90;;;;;;5149793;27;20054;-72
2023/03/31 04:13:25;;;;;;;13.45;4.35;;;9.90;99.90;;;;;;5146628;22;20059;-88
2023/03/31 04:15:51;;;;;;;12.30;3.97;;;9.90;99.90;;;;;;5083094;28;20040;-85
2023/03/31 04:18:23;;;;;;;11.23;4.10;;;9.90;99.90;;;;;;5068068;28;20090;-84
2023/03/31 04:21:02;;;;;;;16.15;4.30;;;9.90;99.90;;;;;;5081913;28;20070;-85
2023/03/31 04:23:33;;;;;;;13.90;4.40;;;9.90;99.90;;;;;;5078830;28;20108;-85
2023/03/31 04:26:00;;;;;;;12.02;4.80;;;9.90;99.90;;;;;;5082535;28;20043;-85
2023/03/31 04:28:25;;;;;;;13.13;5.13;;;9.90;99.90;;;;;;5087885;28;20074;-85
2023/03/31 04:30:57;;;;;;;11.52;4.20;;;9.90;99.90;;;;;;5075779;28;20040;-85
2023/03/31 04:33:23;;;;;;;9.98;4.10;;;9.90;99.90;;;;;;5075252;28;20109;-85
2023/03/31 04:35:49;;;;;;;14.65;4.80;;;9.80;99.90;;;;;;5070642;28;20032;-85
2023/03/31 04:38:19;;;;;;;15.65;4.57;;;9.80;99.90;;;;;;5068570;28;20036;-85
2023/03/31 04:40:46;;;;;;;12.07;4.53;;;9.90;99.90;;;;;;5072854;28;20044;-86
2023/03/31 04:43:12;;;;;;;13.25;4.75;;;9.90;99.90;;;;;;5090622;28;20039;-86
2023/03/31 04:45:38;;;;;;;12.13;4.10;;;9.90;99.90;;;;;;5071491;28;20039;-86
2023/03/31 04:48:04;;;;;;;17.88;4.25;;;9.90;99.90;;;;;;5091839;28;20032;-86
2023/03/31 04:50:31;;;;;;;14.05;3.33;;;9.90;99.90;;;;;;5086254;28;20101;-85
2023/03/31 04:53:00;;;;;;;13.85;3.97;;;10.00;99.90;;;;;;5086182;28;20044;-86
2023/03/31 04:55:29;;;;;;;13.07;4.53;;;10.00;99.90;;;;;;5077422;28;20039;-85
2023/03/31 04:57:54;;;;;;;13.15;4.43;;;10.10;99.90;;;;;;5082784;28;20154;-87
2023/03/31 05:00:21;;;;;;;17.35;3.80;;;10.00;99.90;;;;;;5082327;28;20044;-87
2023/03/31 05:02:47;;;;;;;14.07;3.45;;;10.00;99.90;;;;;;5081926;28;20044;-85
2023/03/31 05:05:13;;;;;;;13.40;3.00;;;10.00;99.90;;;;;;5066427;28;20717;-85
2023/03/31 05:07:39;;;;;;;10.48;3.22;;;10.00;99.90;;;;;;5069055;28;20032;-85
2023/03/31 05:10:05;;;;;;;14.63;4.03;;;10.00;99.90;;;;;;5092182;28;20040;-85
2023/03/31 05:12:38;;;;;;;12.38;3.80;;;10.00;99.90;;;;;;5071511;28;20106;-85
2023/03/31 05:15:07;;;;;;;11.98;3.55;;;10.00;99.90;;;;;;5086456;28;20074;-85
2023/03/31 05:17:35;;;;;;;11.98;3.72;;;10.00;99.90;;;;;;5080493;28;20043;-85
2023/03/31 05:20:05;;;;;;;15.32;3.95;;;9.90;99.90;;;;;;5062020;28;20047;-84
2023/03/31 05:22:34;;;;;;;11.15;3.67;;;10.00;99.90;;;;;;5056199;28;20040;-84
2023/03/31 05:25:00;;;;;;;10.82;3.25;;;10.00;99.90;;;;;;5058654;28;20046;-84
2023/03/31 05:27:25;;;;;;;12.85;3.55;;;10.00;99.90;;;;;;5057536;28;20040;-84
2023/03/31 05:29:51;;;;;;;11.10;3.67;;;9.90;99.90;;;;;;5062267;28;20066;-83
2023/03/31 05:32:17;;;;;;;16.52;4.20;;;9.90;99.90;;;;;;5064957;28;20093;-84
2023/03/31 05:34:42;;;;;;;14.63;4.68;;;9.90;99.90;;;;;;5075475;28;20040;-83
2023/03/31 05:37:08;;;;;;;15.20;3.70;;;9.80;99.90;;;;;;5043359;28;20040;-81
2023/03/31 05:39:35;;;;;;;18.05;4.22;;;9.80;99.90;;;;;;5075349;28;20040;-82
2023/03/31 05:42:01;;;;;;;12.52;4.13;;;9.80;99.90;;;;;;5063449;28;20395;-81
2023/03/31 05:44:27;;;;;;;12.02;4.18;;;9.80;99.90;;;;;;5049393;28;20377;-81
2023/03/31 05:46:56;;;;;;;11.52;3.47;;;9.90;99.90;;;;;;5054995;28;20051;-81
2023/03/31 05:49:22;;;;;;;11.50;3.53;;;9.80;99.90;;;;;;5051976;28;20044;-80
2023/03/31 05:51:48;;;;;;;11.52;4.05;;;9.80;99.90;;;;;;5064839;28;20064;-81
2023/03/31 05:54:13;;;;;;;8.82;3.97;;;9.80;99.90;;;;;;5062710;28;20158;-81
2023/03/31 05:56:39;;;;;;;9.73;3.80;;;9.80;99.90;;;;;;5064313;28;20048;-81
2023/03/31 05:59:05;;;;;;;10.50;3.50;;;9.80;99.90;;;;;;5056139;28;20087;-81
2023/03/31 06:01:31;;;;;;;10.73;3.60;;;9.80;99.90;;;;;;5070937;28;20079;-79
2023/03/31 06:03:57;;;;;;;9.90;3.67;;;9.80;99.90;;;;;;5051590;28;20040;-80
2023/03/31 06:06:23;;;;;;;15.23;4.30;;;9.80;99.90;;;;;;5068988;28;20067;-80
2023/03/31 06:08:50;;;;;;;12.35;4.22;;;9.80;99.90;;;;;;5066685;28;20127;-80
2023/03/31 06:11:21;;;;;;;11.55;4.03;;;9.80;99.90;;;;;;5052909;28;20468;-80
2023/03/31 06:13:49;;;;;;;10.50;3.72;;;9.80;99.90;;;;;;5057577;28;20044;-76
2023/03/31 06:16:16;;;;;;;9.95;3.35;;;9.80;99.90;;;;;;5071047;28;20085;-76
2023/03/31 06:18:42;;;;;;;7.50;3.03;;;9.80;99.90;;;;;;5070378;28;20040;-77
2023/03/31 06:21:12;;;;;;;7.57;3.30;;;9.80;99.90;;;;;;5055942;28;20647;-78
2023/03/31 06:23:38;;;;;;;9.85;3.50;;;9.80;99.90;;;;;;5063379;28;20051;-78
2023/03/31 06:26:07;;;;;;;9.07;3.10;;;9.80;99.90;;;;;;5067602;28;20115;-77
2023/03/31 06:28:33;;;;;;;6.47;3.38;;;9.80;99.90;;;;;;5048399;28;20040;-77
2023/03/31 06:31:11;;;;;;;11.18;3.67;;;9.80;99.90;;;;;;5052370;28;20044;-77
2023/03/31 06:33:38;;;;;;;7.18;3.30;;;9.90;99.90;;;;;;5047557;28;20037;-78
2023/03/31 06:36:05;;;;;;;9.60;3.72;;;9.80;99.90;;;;;;5069849;28;20068;-79
2023/03/31 06:38:35;;;;;;;7.97;3.45;;;9.80;99.90;;;;;;5071738;28;20043;-80
2023/03/31 06:41:01;;;;;;;13.52;4.10;;;9.80;99.90;;;;;;5061947;28;20097;-78
2023/03/31 06:43:27;;;;;;;11.13;3.55;;;9.80;99.90;;;;;;5071362;28;20044;-77
2023/03/31 06:45:54;;;;;;;12.93;4.40;;;9.80;99.90;;;;;;5054194;28;20050;-78
2023/03/31 06:48:21;;;;;;;16.17;3.75;;;9.80;99.90;;;;;;5059402;28;20042;-78
2023/03/31 06:50:47;;;;;;;9.95;3.33;;;9.80;99.90;;;;;;5052277;28;20040;-78
2023/03/31 06:53:13;;;;;;;11.93;3.92;;;9.80;99.90;;;;;;5068414;28;20053;-78
2023/03/31 06:55:39;;;;;;;11.32;3.78;;;9.70;99.90;;;;;;5070087;28;20044;-80
2023/03/31 06:58:05;;;;;;;16.30;3.83;;;9.80;99.90;;;;;;5065939;28;20075;-77
2023/03/31 07:00:32;;;;;;;12.18;3.47;;;9.80;99.90;;;;;;5071409;28;20044;-77
2023/03/31 07:02:58;;;;;;;10.82;3.60;;;9.80;99.90;;;;;;5059768;28;20542;-76
2023/03/31 07:05:27;;;;;;;10.30;3.45;;;9.80;99.90;;;;;;5066392;28;20054;-76
2023/03/31 07:07:58;;;;;;;10.32;3.45;;;9.80;99.90;;;;;;5057032;28;20044;-76
2023/03/31 07:10:28;;;;;;;11.20;3.28;;;9.90;99.90;;;;;;5067679;28;20159;-77
2023/03/31 07:12:54;;;;;;;7.97;3.47;;;9.80;99.90;;;;;;5046260;28;20125;-76
2023/03/31 07:15:21;;;;;;;12.73;3.20;;;9.80;99.90;;;;;;5052661;28;20100;-77
2023/03/31 07:17:49;;;;;;;11.27;3.25;;;9.90;99.90;;;;;;5060467;28;20503;-76
2023/03/31 07:20:17;;;;;;;11.60;4.07;;;9.90;99.90;;;;;;5050258;28;20096;-77
2023/03/31 07:22:44;;;;;;;13.82;3.40;;;9.90;99.90;;;;;;5048620;28;20052;-77
2023/03/31 07:25:11;;;;;;;10.38;3.22;;;9.90;99.90;;;;;;5070049;28;20049;-77
2023/03/31 07:27:37;;;;;;;8.63;3.35;;;9.90;99.90;;;;;;5055295;28;20032;-77
2023/03/31 07:30:05;;;;;;;11.43;3.67;;;9.90;99.90;;;;;;5072590;28;20273;-77
2023/03/31 07:32:32;;;;;;;11.68;3.42;;;10.00;99.90;;;;;;5073064;28;20388;-78
2023/03/31 07:34:58;;;;;;;10.10;3.97;;;10.00;99.90;;;;;;5071341;28;20036;-77
2023/03/31 07:37:24;;;;;;;9.55;3.80;;;10.00;99.90;;;;;;5070422;28;20541;-78
2023/03/31 07:39:50;;;;;;;8.48;3.75;;;10.10;99.90;;;;;;5060634;28;20094;-79
2023/03/31 07:42:16;;;;;;;10.85;3.60;;;10.10;99.90;;;;;;5070249;28;20093;-77
2023/03/31 07:44:42;;;;;;;10.27;3.92;;;10.10;99.90;;;;;;5068497;28;20415;-80
2023/03/31 07:47:07;;;;;;;10.65;3.97;;;10.10;99.90;;;;;;5046405;28;20128;-81
2023/03/31 07:49:34;;;;;;;10.18;3.80;;;10.20;99.90;;;;;;5052713;28;20044;-80
2023/03/31 07:52:01;;;;;;;13.88;5.15;;;10.20;99.90;;;;;;5044664;28;20032;-81
2023/03/31 07:54:27;;;;;;;14.05;4.60;;;10.20;99.90;;;;;;5067386;28;20123;-81
2023/03/31 07:57:04;;;;;;;12.70;3.78;;;10.20;99.90;;;;;;5058990;28;20578;-81
2023/03/31 07:59:30;;;;;;;18.23;4.63;;;10.30;99.90;;;;;;5065126;28;20075;-82
2023/03/31 08:01:59;;;;;;;16.45;4.25;;;10.30;99.90;;;;;;5047449;28;20063;-82
2023/03/31 08:04:25;;;;;;;14.38;3.88;;;10.40;99.90;;;;;;5068257;28;20484;-82
2023/03/31 08:06:51;;;;;;;15.30;3.90;;;10.40;99.90;;;;;;5063694;28;20068;-82
2023/03/31 08:09:17;;;;;;;14.35;4.13;;;10.40;99.90;;;;;;5067405;28;20044;-83
2023/03/31 08:11:43;;;;;;;16.67;3.70;;;10.40;99.90;;;;;;5065982;28;20032;-84
2023/03/31 08:14:09;;;;;;;15.63;3.50;;;10.50;99.90;;;;;;5072295;28;20113;-83
2023/03/31 08:16:35;;;;;;;14.57;3.53;;;10.50;99.90;;;;;;5064286;28;20090;-82
2023/03/31 08:19:00;;;;;;;13.15;3.65;;;10.50;99.90;;;;;;5068636;28;20067;-83
2023/03/31 08:21:30;;;;;;;16.60;3.83;;;10.60;99.90;;;;;;5071574;28;20048;-83
2023/03/31 08:23:59;;;;;;;16.33;4.53;;;10.60;99.90;;;;;;5066745;28;20051;-83
2023/03/31 08:26:25;;;;;;;9.95;3.60;;;10.60;99.90;;;;;;5067675;28;20553;-80
2023/03/31 08:28:52;;;;;;;16.85;4.15;;;10.60;99.90;;;;;;5073219;28;20036;-80
2023/03/31 08:31:20;;;;;;;12.73;3.10;;;10.60;99.90;;;;;;5057433;28;20036;-79
2023/03/31 08:33:46;;;;;;;9.90;2.80;;;10.70;99.90;;;;;;5069803;28;20169;-79
2023/03/31 08:36:13;;;;;;;12.13;2.90;;;10.70;99.90;;;;;;5056848;28;20090;-79
2023/03/31 08:38:48;;;;;;;12.07;2.60;;;10.70;99.90;;;;;;5069430;28;20380;-79
2023/03/31 08:41:32;;;;;;;9.20;2.75;;;10.70;99.90;;;;;;5072317;28;20040;-80
2023/03/31 08:44:02;;;;;;;12.57;2.70;;;10.70;99.90;;;;;;5055633;28;20097;-79
2023/03/31 08:46:32;;;;;;;11.52;2.78;;;10.70;99.90;;;;;;5068795;28;20044;-80
2023/03/31 08:49:00;;;;;;;10.57;2.25;;;10.70;99.90;;;;;;5070727;28;20091;-79
2023/03/31 08:51:42;;;;;;;12.65;2.13;;;10.70;99.90;;;;;;5059550;28;20040;-83
2023/03/31 08:54:34;;;;;;;7.57;2.47;;;10.80;99.90;;;;;;5082160;28;20138;-82
2023/03/31 08:57:02;;;;;;;9.65;2.55;;;10.80;99.90;;;;;;5090273;28;20501;-83
2023/03/31 08:59:32;;;;;;;8.48;2.45;;;10.80;99.90;;;;;;5069577;28;20439;-82
2023/03/31 09:02:17;;;;;;;11.48;2.40;;;10.80;99.90;;;;;;5085213;28;20097;-83
2023/03/31 09:04:43;;;;;;;11.40;2.00;;;10.80;99.90;;;;;;5056773;28;20090;-82
2023/03/31 09:07:28;;;;;;;10.18;2.20;;;10.90;99.90;;;;;;5068739;28;20510;-83
2023/03/31 09:10:12;;;;;;;10.75;2.38;;;10.90;99.90;;;;;;5068853;28;20109;-83
2023/03/31 09:12:58;;;;;;;10.33;2.30;;;10.90;99.90;;;;;;5068318;28;20052;-82
2023/03/31 09:15:41;;;;;;;12.45;2.75;;;10.90;99.90;;;;;;5067614;28;20089;-82
2023/03/31 09:18:34;;;;;;;10.20;2.10;;;10.90;99.90;;;;;;5054376;28;20040;-82
2023/03/31 09:21:42;;;;;;;7.40;2.40;;;11.00;99.90;;;;;;5056477;28;20063;-82
2023/03/31 09:24:39;;;;;;;8.23;2.85;;;11.10;99.90;;;;;;5020278;28;20064;-82
2023/03/31 09:27:11;;;;;;;6.82;2.17;;;11.10;99.90;;;;;;5060460;28;20048;-82
2023/03/31 09:29:43;;;;;;;6.10;2.03;;;11.30;99.90;;;;;;5052776;28;20383;-81
2023/03/31 09:32:29;;;;;;;8.32;1.70;;;11.20;99.90;;;;;;5056367;28;20044;-81
2023/03/31 09:35:21;;;;;;;8.90;1.90;;;11.30;99.90;;;;;;5056220;28;20119;-81
2023/03/31 09:37:48;;;;;;;9.82;1.77;;;11.30;99.90;;;;;;5055493;28;20072;-80
2023/03/31 09:40:19;;;;;;;9.07;2.10;;;11.30;99.90;;;;;;5050562;28;20449;-80
2023/03/31 09:42:50;;;;;;;5.47;1.40;;;11.30;99.90;;;;;;5063416;28;20045;-80
2023/03/31 09:45:18;;;;;;;6.65;1.63;;;11.30;99.90;;;;;;5064160;28;20622;-80
2023/03/31 09:47:50;;;;;;;7.22;2.03;;;11.30;99.90;;;;;;5064325;28;20036;-79
2023/03/31 09:50:16;;;;;;;7.72;1.73;;;11.40;99.90;;;;;;5052613;28;20044;-79
2023/03/31 09:52:47;;;;;;;10.55;1.70;;;11.40;99.90;;;;;;5049700;28;20036;-79
2023/03/31 09:55:25;;;;;;;7.60;2.00;;;11.50;99.90;;;;;;5045756;28;20063;-79
2023/03/31 09:57:51;;;;;;;5.70;1.60;;;11.60;99.90;;;;;;5056502;28;20032;-78
2023/03/31 10:00:20;;;;;;;4.63;1.20;;;11.60;99.90;;;;;;5052458;28;20040;-79
2023/03/31 10:02:52;;;;;;;4.65;1.73;;;11.60;99.90;;;;;;5047600;28;20040;-79
2023/03/31 10:05:31;;;;;;;5.10;1.58;;;11.60;99.90;;;;;;5064924;28;20649;-79
2023/03/31 10:08:18;;;;;;;4.47;1.63;;;11.70;99.90;;;;;;5064626;28;20044;-79
2023/03/31 10:10:57;;;;;;;7.47;1.50;;;11.80;99.90;;;;;;5048005;28;20047;-79
2023/03/31 10:13:29;;;;;;;6.57;1.55;;;11.90;99.90;;;;;;5065021;28;20051;-79
2023/03/31 10:16:03;;;;;;;7.40;1.60;;;12.00;99.90;;;;;;5066619;28;20115;-79
2023/03/31 10:18:36;;;;;;;5.32;1.38;;;12.00;99.90;;;;;;5066541;28;20075;-79
2023/03/31 10:21:05;;;;;;;3.35;1.30;;;12.10;99.90;;;;;;5063396;28;20114;-80
2023/03/31 10:23:33;;;;;;;6.50;1.48;;;12.20;99.90;;;;;;5055212;28;20044;-80
2023/03/31 10:26:01;;;;;;;5.55;1.60;;;12.30;99.90;;;;;;5056206;28;20036;-80
2023/03/31 10:28:33;;;;;;;5.32;1.42;;;12.30;99.90;;;;;;5053685;28;20122;-80
2023/03/31 10:31:00;;;;;;;7.03;1.67;;;12.30;99.90;;;;;;5069564;28;20373;-81
2023/03/31 10:33:29;;;;;;;4.65;1.30;;;12.40;99.90;;;;;;5068426;28;20044;-81
2023/03/31 10:36:07;;;;;;;4.60;1.05;;;12.40;99.90;;;;;;5070593;28;20463;-81
2023/03/31 10:38:41;;;;;;;7.97;1.48;;;12.40;99.90;;;;;;5056295;28;20491;-81
2023/03/31 10:41:07;;;;;;;;;;;12.50;99.90;;;;;;5057401;28;20046;-81
2023/03/31 10:43:47;;;;;;;6.20;1.45;;;12.60;99.90;;;;;;5070582;28;20011;-81
2023/03/31 10:46:13;;;;;;;6.18;1.63;;;12.60;99.90;;;;;;5065555;28;20045;-81
2023/03/31 10:48:41;;;;;;;6.15;1.20;;;12.60;99.90;;;;;;5058385;28;20048;-81
2023/03/31 10:51:20;;;;;;;4.90;1.27;;;12.60;99.90;;;;;;5067709;28;20060;-81
2023/03/31 10:53:51;;;;;;;5.47;1.52;;;12.50;99.90;;;;;;5056497;28;20044;-80
2023/03/31 10:56:45;;;;;;;5.20;1.35;;;12.40;99.90;;;;;;5049879;28;20059;-80
2023/03/31 10:59:16;;;;;;;5.80;1.35;;;12.30;99.90;;;;;;5054346;28;20033;-80
2023/03/31 11:02:06;;;;;;;5.78;1.23;;;12.20;99.90;;;;;;5067908;28;20059;-79
2023/03/31 11:04:51;;;;;;;5.80;1.30;;;12.10;99.90;;;;;;5063794;28;20049;-79
2023/03/31 11:07:31;;;;;;;5.68;1.70;;;12.00;99.90;;;;;;5054817;28;20093;-79
2023/03/31 11:10:06;;;;;;;7.30;1.55;;;12.10;99.90;;;;;;5056129;28;20036;-79
2023/03/31 11:12:56;;;;;;;7.35;1.67;;;12.20;99.90;;;;;;5066399;28;20035;-79
2023/03/31 11:15:29;;;;;;;8.52;1.77;;;12.30;99.90;;;;;;5057018;28;20123;-79
2023/03/31 11:18:02;;;;;;;8.45;2.00;;;12.30;99.90;;;;;;5066221;28;20070;-79
2023/03/31 11:20:49;;;;;;;7.90;1.70;;;12.30;99.90;;;;;;5059867;28;20123;-79
2023/03/31 11:23:21;;;;;;;7.18;1.40;;;12.30;99.90;;;;;;5053354;28;20089;-79
2023/03/31 11:25:51;;;;;;;8.95;2.17;;;12.30;99.90;;;;;;5066767;28;20495;-79
2023/03/31 11:28:27;;;;;;;6.90;2.25;;;12.20;99.90;;;;;;5056425;28;20051;-79
2023/03/31 11:31:31;;;;;;;8.30;1.90;;;12.30;99.90;;;;;;5054989;28;21019;-79
2023/03/31 11:34:05;;;;;;;4.70;1.90;;;12.30;99.90;;;;;;5042619;28;20071;-79
2023/03/31 11:36:58;;;;;;;9.40;1.88;;;12.40;99.90;;;;;;5064441;28;20592;-79
2023/03/31 11:39:36;;;;;;;8.38;1.95;;;12.40;99.90;;;;;;5048439;28;20041;-79
2023/03/31 11:42:08;;;;;;;11.30;1.90;;;12.40;99.90;;;;;;5053254;28;20413;-76
2023/03/31 11:44:51;;;;;;;6.55;1.55;;;12.50;99.90;;;;;;5067777;28;20044;-77
2023/03/31 11:47:29;;;;;;;7.38;2.63;;;12.60;99.90;;;;;;5046067;28;20463;-76
2023/03/31 11:50:09;;;;;;;10.43;2.33;;;12.60;99.90;;;;;;5066636;28;20361;-78
2023/03/31 11:52:41;;;;;;;7.93;2.47;;;12.70;99.90;;;;;;5067207;28;20044;-76
2023/03/31 11:55:18;;;;;;;6.68;2.08;;;12.70;99.90;;;;;;5068235;28;21159;-76
2023/03/31 11:57:59;;;;;;;12.70;2.60;;;12.80;99.90;;;;;;5049277;28;20091;-76
2023/03/31 12:00:31;;;;;;;11.38;2.97;;;12.90;99.90;;;;;;5069101;28;20047;-76
2023/03/31 12:03:28;;;;;;;9.98;2.92;;;12.90;99.90;;;;;;5066874;28;20044;-76
2023/03/31 12:06:18;;;;;;;10.93;3.00;;;13.10;99.90;;;;;;5070598;28;20032;-76
2023/03/31 12:09:28;;;;;;;8.15;2.45;;;13.20;99.90;;;;;;5064896;28;20048;-77
2023/03/31 12:12:12;;;;;;;12.77;3.08;;;13.20;99.90;;;;;;5036562;28;20480;-76
2023/03/31 12:15:43;;;;;;;9.30;2.90;;;13.10;99.90;;;;;;5063339;28;20447;-78
2023/03/31 12:18:11;;;;;;;7.32;2.22;;;13.00;99.90;;;;;;4983857;28;20049;-77
2023/03/31 12:20:43;;;;;;;11.60;2.53;;;13.00;99.90;;;;;;4974909;28;20590;-77
2023/03/31 12:23:24;;;;;;;8.93;2.20;;;13.00;99.90;;;;;;5029523;28;20044;-80
2023/03/31 12:26:31;;;;;;;14.02;3.33;;;13.20;99.90;;;;;;5064341;28;20119;-81
2023/03/31 12:29:02;;;;;;;9.07;2.80;;;13.60;99.90;;;;;;4996170;28;20513;-82
2023/03/31 12:31:29;;;;;;;10.43;2.63;;;13.70;99.90;;;;;;5016256;28;20038;-82
2023/03/31 12:34:00;;;;;;;8.05;2.35;;;13.60;99.90;;;;;;5046322;28;20101;-82
2023/03/31 12:36:41;;;;;;;12.38;2.85;;;13.60;99.90;;;;;;5067665;28;20675;-83
2023/03/31 12:39:28;;;;;;;11.80;2.88;;;13.60;99.90;;;;;;5078797;28;20387;-82
2023/03/31 12:42:32;;;;;;;9.13;2.53;;;13.60;99.90;;;;;;5059526;28;20044;-83
2023/03/31 12:45:10;;;;;;;15.60;3.70;;;13.60;99.90;;;;;;5054007;28;20036;-79
2023/03/31 12:47:48;;;;;;;11.35;2.58;;;13.70;99.90;;;;;;5059451;28;20041;-79
2023/03/31 12:50:41;;;;;;;10.20;2.90;;;13.70;99.90;;;;;;5058855;28;20144;-80
2023/03/31 12:53:22;;;;;;;11.63;2.50;;;13.60;99.90;;;;;;5053819;28;20075;-79
2023/03/31 12:55:50;;;;;;;9.75;2.25;;;13.50;99.90;;;;;;5066867;28;20061;-78
2023/03/31 12:58:25;;;;;;;12.18;2.70;;;13.40;99.90;;;;;;5073811;28;20059;-79
2023/03/31 13:01:03;;;;;;;11.60;2.83;;;13.30;99.90;;;;;;5056376;28;20104;-79
2023/03/31 13:04:01;;;;;;;11.25;3.03;;;13.30;99.90;;;;;;5075839;28;20945;-79
2023/03/31 13:06:30;;;;;;;14.75;3.13;;;13.30;99.90;;;;;;5061233;28;20103;-80
2023/03/31 13:09:07;;;;;;;17.02;3.53;;;13.30;99.90;;;;;;5080931;28;20039;-80
2023/03/31 13:11:38;;;;;;;17.25;3.42;;;13.20;99.90;;;;;;5073464;28;20040;-80
2023/03/31 13:14:20;;;;;;;14.70;2.88;;;13.30;99.90;;;;;;5068543;28;20089;-80